Pacoima, California
Current Conditions -  °F | °C
As of 6:51 AM on Friday 31 Oct 2014 (Local Time) from KVNY Reporting Station
Scattered Clouds Scattered Clouds  
Wind Chill: 59°   Ceiling: Unl
Heat Index: 59°   Visibility: 7mi
Dew Point: 54°   Wind: 3mph
Humidity: 83%   Direction: 180°S
Pressure: 29.96"   Gusts: NA
Location:  34.26°N, 118.43°W
Report Text: KVNY 311351Z 18003KT 7SM SCT014 15/12 A2996 RMK AO2 SLP138 T01500122
Loading
Personal Weather Stations






























Interactive Weather Map
Tropical Storm Tracking
New forecast layout! Learn more

10-Day Weather Forecast

Advertisements
Track Severe Weather on mobile